Maija — OI5359 — position and weather

sailwx.info

Track history (hours):
 
Tides and Currents Weather Stations Pressure Air Temp Water Temp Dewpoint Dewpoint Depression Visibility Wind Speed Wind Dir Waves Ship Positions

Maija

Last reported at 2014-May-27 11:45 UTC. Time now 2014-Jul-25 11:24 UTC.
Position N 59°55' E 023°20'.
Warning: this ship's position is 58 days out of date.

Length 15 m.

Type: Diving. MMSI: 230030370.

Date/timePositionNaut miles runAvg speedWind from/ knotsBaromVisibWave heightAir tempDewpointWater temp
2014-May-27 11:45N 59°55' E 023°20'2 7.3
2014-May-27 11:27N 59°56' E 023°23'3 6.6
2014-May-27 11:04N 59°59' E 023°25'0 0.3
2014-May-27 10:28N 59°59' E 023°26'0 0.0
2014-May-27 09:58N 59°59' E 023°26'0 0.0
2014-May-27 09:31N 59°59' E 023°26'0 0.0
2014-May-27 09:01N 59°59' E 023°26'0 0.0
2014-May-27 08:28N 59°59' E 023°26'0 0.0
2014-May-27 07:31N 59°59' E 023°26'0 0.0
2014-May-27 07:01N 59°59' E 023°26'0 0.0
2014-May-27 06:28N 59°59' E 023°26'0 0.0
2014-May-27 06:04N 59°59' E 023°26'0 0.0
2014-May-27 05:31N 59°59' E 023°26'0 0.0
2014-May-27 04:31N 59°59' E 023°26'0 0.0
2014-May-27 04:04N 59°59' E 023°26'0 0.0
2014-May-27 03:31N 59°59' E 023°26'0 0.0
2014-May-27 00:25N 59°59' E 023°26'0 0.0
2014-May-26 23:55N 59°59' E 023°26'0 0.0
2014-May-26 23:28N 59°59' E 023°26'0 0.0
2014-May-26 22:58N 59°59' E 023°26'0 0.0
2014-May-26 22:28N 59°59' E 023°26'0 0.0
2014-May-26 21:58N 59°59' E 023°26'0 0.0
2014-May-26 21:28N 59°59' E 023°26'0 0.0
2014-May-26 20:01N 59°59' E 023°26'0 0.0
2014-May-26 19:31N 59°59' E 023°26'0 0.0
2014-May-26 19:01N 59°59' E 023°26'1 1.5
2014-May-26 18:33N 59°58' E 023°25'4 7.0
2014-May-26 18:00N 59°55' E 023°20'5 1.2
2014-May-26 13:41N 59°51' E 023°27'  
Track history (hours):
 
Tides and Currents Weather Stations Pressure Air Temp Water Temp Dewpoint Dewpoint Depression Visibility Wind Speed Wind Dir Waves Ship Positions

Maija

Last reported at 2014-May-27 11:45 UTC. Time now 2014-Jul-25 11:24 UTC.
Position N 59°55' E 023°20'.
Warning: this ship's position is 58 days out of date.

Length 15 m.

Type: Diving. MMSI: 230030370.

Date/timePositionNaut miles runAvg speedWind from/ knotsBaromVisibWave heightAir tempDewpointWater temp
2014-May-27 11:45N 59°55' E 023°20'2 7.3
2014-May-27 11:27N 59°56' E 023°23'3 6.6
2014-May-27 11:04N 59°59' E 023°25'0 0.3
2014-May-27 10:28N 59°59' E 023°26'0 0.0
2014-May-27 09:58N 59°59' E 023°26'0 0.0
2014-May-27 09:31N 59°59' E 023°26'0 0.0
2014-May-27 09:01N 59°59' E 023°26'0 0.0
2014-May-27 08:28N 59°59' E 023°26'0 0.0
2014-May-27 07:31N 59°59' E 023°26'0 0.0
2014-May-27 07:01N 59°59' E 023°26'0 0.0
2014-May-27 06:28N 59°59' E 023°26'0 0.0
2014-May-27 06:04N 59°59' E 023°26'0 0.0
2014-May-27 05:31N 59°59' E 023°26'0 0.0
2014-May-27 04:31N 59°59' E 023°26'0 0.0
2014-May-27 04:04N 59°59' E 023°26'0 0.0
2014-May-27 03:31N 59°59' E 023°26'0 0.0
2014-May-27 00:25N 59°59' E 023°26'0 0.0
2014-May-26 23:55N 59°59' E 023°26'0 0.0
2014-May-26 23:28N 59°59' E 023°26'0 0.0
2014-May-26 22:58N 59°59' E 023°26'0 0.0
2014-May-26 22:28N 59°59' E 023°26'0 0.0
2014-May-26 21:58N 59°59' E 023°26'0 0.0
2014-May-26 21:28N 59°59' E 023°26'0 0.0
2014-May-26 20:01N 59°59' E 023°26'0 0.0
2014-May-26 19:31N 59°59' E 023°26'0 0.0
2014-May-26 19:01N 59°59' E 023°26'1 1.5
2014-May-26 18:33N 59°58' E 023°25'4 7.0
2014-May-26 18:00N 59°55' E 023°20'5 1.2
2014-May-26 13:41N 59°51' E 023°27'  

Dump ship's entire track history